K K — WDE8363 — position and weather

sailwx.info

Track history (hours):
 
Tides and Currents Weather Stations Pressure Air Temp Water Temp Dewpoint Dewpoint Depression Visibility Wind Speed Wind Dir Waves Ship Positions

K K

Owner: Lafayette Workboat Rentals LLC., Broussard, LA. More information available from US FCC via Universal Licensing System and Coast Guard Vessel Documentation Center.

Last reported at 2018-Jun-23 06:31 UTC. Time now 2018-Jun-25 14:14 UTC.
Position N 29°43' W 095°16'.

Length 16 m; draft 6 m.

Type: Ship (hazmat cat D). MMSI: 367404620.

Date/timePositionNaut miles runAvg speedWind from/ knotsBaromVisibWave heightAir tempDewpointWater temp
2018-Jun-23 06:31N 29°43' W 095°16'0 0.0
2018-Jun-23 06:07N 29°43' W 095°16'0 0.0
2018-Jun-23 05:57N 29°43' W 095°16'0 0.0
2018-Jun-23 05:30N 29°43' W 095°16'0 0.0
2018-Jun-23 04:58N 29°43' W 095°16'0 0.0
2018-Jun-23 04:30N 29°43' W 095°16'0 0.0
2018-Jun-22 06:00N 29°43' W 095°16'0 0.0
2018-Jun-22 05:30N 29°43' W 095°16'3 0.6
2018-Jun-22 01:01N 29°44' W 095°13'0 7.8
2018-Jun-22 01:00N 29°44' W 095°13'7 4.8
2018-Jun-21 23:33N 29°46' W 095°06'2 5.4
2018-Jun-21 23:14N 29°45' W 095°04'2 5.6
2018-Jun-21 22:51N 29°44' W 095°02'2 5.2
2018-Jun-21 22:29N 29°42' W 095°01'3 5.6
2018-Jun-21 21:55N 29°40' W 094°58'3 6.8
2018-Jun-21 21:30N 29°37' W 094°57'5 6.4
2018-Jun-21 20:45N 29°33' W 094°55'2 6.8
2018-Jun-21 20:29N 29°32' W 094°53'3 6.9
2018-Jun-21 20:00N 29°29' W 094°51'4 7.3
2018-Jun-21 19:29N 29°25' W 094°50'4 7.8
2018-Jun-21 19:00N 29°22' W 094°48'3 6.7
2018-Jun-21 18:30N 29°19' W 094°51'3 6.5
2018-Jun-21 18:00N 29°17' W 094°54'3 6.4
2018-Jun-21 17:30N 29°17' W 094°58'3 6.2
2018-Jun-21 17:00N 29°15' W 095°00'3 6.3
2018-Jun-21 16:30N 29°13' W 095°02'3 6.4
2018-Jun-21 16:00N 29°11' W 095°06'3 6.4
2018-Jun-21 15:30N 29°09' W 095°09'3 6.4
2018-Jun-21 15:00N 29°07' W 095°11'3 6.1
2018-Jun-21 14:30N 29°04' W 095°13'3 6.0
2018-Jun-21 14:00N 29°01' W 095°14'3 6.1
2018-Jun-21 13:30N 28°59' W 095°16'3 6.0
2018-Jun-21 13:00N 28°57' W 095°18'1 2.1
2018-Jun-21 12:30N 28°57' W 095°20'1 1.0
2018-Jun-21 11:55N 28°57' W 095°20'0 0.0
2018-Jun-21 09:35N 28°57' W 095°20'0 0.1
2018-Jun-21 09:26N 28°57' W 095°20'0 0.0
2018-Jun-21 07:12N 28°57' W 095°20'0 0.0
2018-Jun-21 06:48N 28°57' W 095°20'0 0.0
2018-Jun-21 05:27N 28°57' W 095°20'0 0.0
2018-Jun-21 04:59N 28°57' W 095°20'0 0.0
2018-Jun-20 22:42N 28°57' W 095°20'0 0.0
2018-Jun-20 22:12N 28°57' W 095°20'0 0.1
2018-Jun-20 22:00N 28°57' W 095°20'0 0.0
2018-Jun-20 21:12N 28°57' W 095°20'0 0.0
2018-Jun-20 13:32N 28°57' W 095°20'0 0.0
2018-Jun-20 13:30N 28°57' W 095°20'0 0.0
2018-Jun-20 13:00N 28°57' W 095°20'0 0.0
2018-Jun-20 12:28N 28°57' W 095°20'31 3.4
2018-Jun-20 03:14N 29°17' W 094°53'1 5.8
2018-Jun-20 03:00N 29°18' W 094°53'3 6.0
2018-Jun-20 02:31N 29°20' W 094°50'3 5.7
2018-Jun-20 02:01N 29°23' W 094°49'6 7.0
2018-Jun-20 01:05N 29°29' W 094°52'1 6.8
2018-Jun-20 01:00N 29°29' W 094°52'5 6.5
2018-Jun-20 00:17N 29°33' W 094°55'2 6.2
2018-Jun-20 00:00N 29°35' W 094°56'4 6.2
2018-Jun-19 23:26N 29°38' W 094°58'3 6.6
2018-Jun-19 23:00N 29°41' W 094°59'3 0.1
2018-Jun-18 23:59N 29°42' W 095°01'3 5.3
2018-Jun-18 23:27N 29°40' W 094°59'20 6.4
2018-Jun-18 20:19N 29°22' W 094°48'2 6.0
2018-Jun-18 20:01N 29°21' W 094°49'3 6.3
2018-Jun-18 19:30N 29°19' W 094°52'3 5.5
2018-Jun-18 19:01N 29°17' W 094°55'3 6.0
2018-Jun-18 18:30N 29°17' W 094°58'3 6.1
2018-Jun-18 18:00N 29°15' W 095°01'3 6.1
2018-Jun-18 17:30N 29°12' W 095°03'3 6.2
2018-Jun-18 16:59N 29°11' W 095°06'3 6.2
2018-Jun-18 16:31N 29°09' W 095°09'3 6.2
2018-Jun-18 16:00N 29°07' W 095°11'3 6.0
2018-Jun-18 15:30N 29°04' W 095°13'3 6.2
2018-Jun-18 15:00N 29°01' W 095°14'3 6.9
2018-Jun-18 14:30N 28°59' W 095°17'4 5.3
2018-Jun-18 13:47N 28°56' W 095°20'1 0.9
2018-Jun-18 12:52N 28°57' W 095°20'0 0.0
2018-Jun-17 22:38N 28°57' W 095°20'0 0.0
2018-Jun-17 22:30N 28°57' W 095°20'0 0.0
2018-Jun-16 23:25N 28°57' W 095°20'0 0.1
2018-Jun-16 22:57N 28°57' W 095°20'0 0.0
2018-Jun-16 22:30N 28°57' W 095°20'0 0.0
2018-Jun-16 22:00N 28°57' W 095°20'0 0.0
2018-Jun-16 21:30N 28°57' W 095°20'0 0.0
2018-Jun-16 20:59N 28°57' W 095°20'0 0.0
2018-Jun-16 20:30N 28°57' W 095°20'0 0.0
2018-Jun-16 20:00N 28°57' W 095°20'0 0.0
2018-Jun-16 19:30N 28°57' W 095°20'0 0.0
2018-Jun-16 19:00N 28°57' W 095°20'0 0.0
2018-Jun-16 17:47N 28°57' W 095°20'0 0.1
2018-Jun-16 17:26N 28°57' W 095°20'1 0.1
2018-Jun-16 09:02N 28°57' W 095°20'0 0.3
2018-Jun-16 09:00N 28°57' W 095°20'1 2.1
2018-Jun-16 08:29N 28°57' W 095°18'3 5.2
2018-Jun-16 07:57N 28°59' W 095°16'3 5.9
2018-Jun-16 07:30N 29°01' W 095°15'3 5.7
2018-Jun-16 07:00N 29°03' W 095°13'3 5.7
2018-Jun-16 06:30N 29°06' W 095°12'3 5.2
2018-Jun-16 06:00N 29°08' W 095°10'3 5.5
2018-Jun-16 05:30N 29°10' W 095°08'3 5.3
2018-Jun-16 05:00N 29°11' W 095°05'2 5.0
2018-Jun-16 04:30N 29°12' W 095°03'3 5.1
2018-Jun-16 04:00N 29°14' W 095°01'3 5.0
2018-Jun-16 03:30N 29°16' W 094°59'2 4.6
2018-Jun-16 03:00N 29°17' W 094°57'2 4.4
2018-Jun-16 02:30N 29°17' W 094°54'2 4.5
2018-Jun-16 02:00N 29°19' W 094°52'3 5.5
2018-Jun-16 01:30N 29°20' W 094°50'3 5.3
2018-Jun-16 01:00N 29°23' W 094°49'12 6.4
2018-Jun-15 23:10N 29°33' W 094°55'1 6.0
2018-Jun-15 23:00N 29°34' W 094°55'3 6.2
2018-Jun-15 22:28N 29°37' W 094°57'3 6.3
2018-Jun-15 21:59N 29°40' W 094°59'5 0.1
2018-Jun-14 03:59N 29°44' W 095°02'4 5.1
2018-Jun-14 03:17N 29°42' W 094°59'2 5.7
2018-Jun-14 02:59N 29°40' W 094°58'4 6.2
2018-Jun-14 02:19N 29°36' W 094°57'3 6.4
2018-Jun-14 01:55N 29°34' W 094°55'4 6.3
2018-Jun-14 01:14N 29°30' W 094°52'10 5.7
2018-Jun-13 23:33N 29°21' W 094°48'0 6.8
2018-Jun-13 23:30N 29°21' W 094°49'3 6.1
2018-Jun-13 23:00N 29°19' W 094°51'3 6.3
2018-Jun-13 22:29N 29°17' W 094°54'3 6.3
2018-Jun-13 21:59N 29°17' W 094°58'3 6.0
2018-Jun-13 21:30N 29°15' W 095°00'2 5.0
2018-Jun-13 21:00N 29°13' W 095°02'3 5.6
2018-Jun-13 20:30N 29°11' W 095°05'3 6.1
2018-Jun-13 20:00N 29°10' W 095°08'3 5.9
2018-Jun-13 19:30N 29°08' W 095°10'2 4.4
2018-Jun-13 19:00N 29°06' W 095°12'3 6.2
2018-Jun-13 18:30N 29°03' W 095°13'3 6.2
2018-Jun-13 18:00N 29°01' W 095°15'3 5.8
2018-Jun-13 17:30N 28°59' W 095°17'3 3.7
2018-Jun-13 16:33N 28°56' W 095°20'0 4.4
2018-Jun-13 16:27N 28°57' W 095°20'1 0.7
2018-Jun-13 15:35N 28°57' W 095°20'0 0.3
2018-Jun-13 15:23N 28°57' W 095°20'0 0.4
2018-Jun-13 15:00N 28°57' W 095°20'0 0.0
2018-Jun-13 14:28N 28°57' W 095°20'0 0.0
2018-Jun-13 13:59N 28°57' W 095°20'0 0.0
2018-Jun-13 13:30N 28°57' W 095°20'0 0.0
2018-Jun-13 12:59N 28°57' W 095°20'0 0.0
2018-Jun-13 12:28N 28°57' W 095°20'0 0.1
2018-Jun-13 11:29N 28°57' W 095°20'0 0.0
2018-Jun-13 10:09N 28°57' W 095°20'0 0.0
2018-Jun-13 09:08N 28°57' W 095°20'0 0.0
2018-Jun-13 08:48N 28°57' W 095°20'0 0.0
2018-Jun-13 07:08N 28°57' W 095°20'0 0.0
2018-Jun-13 07:00N 28°57' W 095°20'  
Track history (hours):
 
Tides and Currents Weather Stations Pressure Air Temp Water Temp Dewpoint Dewpoint Depression Visibility Wind Speed Wind Dir Waves Ship Positions

K K

Owner: Lafayette Workboat Rentals LLC., Broussard, LA. More information available from US FCC via Universal Licensing System and Coast Guard Vessel Documentation Center.

Last reported at 2018-Jun-23 06:31 UTC. Time now 2018-Jun-25 14:14 UTC.
Position N 29°43' W 095°16'.

Length 16 m; draft 6 m.

Type: Ship (hazmat cat D). MMSI: 367404620.

Date/timePositionNaut miles runAvg speedWind from/ knotsBaromVisibWave heightAir tempDewpointWater temp
2018-Jun-23 06:31N 29°43' W 095°16'0 0.0
2018-Jun-23 06:07N 29°43' W 095°16'0 0.0
2018-Jun-23 05:57N 29°43' W 095°16'0 0.0
2018-Jun-23 05:30N 29°43' W 095°16'0 0.0
2018-Jun-23 04:58N 29°43' W 095°16'0 0.0
2018-Jun-23 04:30N 29°43' W 095°16'0 0.0
2018-Jun-22 06:00N 29°43' W 095°16'0 0.0
2018-Jun-22 05:30N 29°43' W 095°16'3 0.6
2018-Jun-22 01:01N 29°44' W 095°13'0 7.8
2018-Jun-22 01:00N 29°44' W 095°13'7 4.8
2018-Jun-21 23:33N 29°46' W 095°06'2 5.4
2018-Jun-21 23:14N 29°45' W 095°04'2 5.6
2018-Jun-21 22:51N 29°44' W 095°02'2 5.2
2018-Jun-21 22:29N 29°42' W 095°01'3 5.6
2018-Jun-21 21:55N 29°40' W 094°58'3 6.8
2018-Jun-21 21:30N 29°37' W 094°57'5 6.4
2018-Jun-21 20:45N 29°33' W 094°55'2 6.8
2018-Jun-21 20:29N 29°32' W 094°53'3 6.9
2018-Jun-21 20:00N 29°29' W 094°51'4 7.3
2018-Jun-21 19:29N 29°25' W 094°50'4 7.8
2018-Jun-21 19:00N 29°22' W 094°48'3 6.7
2018-Jun-21 18:30N 29°19' W 094°51'3 6.5
2018-Jun-21 18:00N 29°17' W 094°54'3 6.4
2018-Jun-21 17:30N 29°17' W 094°58'3 6.2
2018-Jun-21 17:00N 29°15' W 095°00'3 6.3
2018-Jun-21 16:30N 29°13' W 095°02'3 6.4
2018-Jun-21 16:00N 29°11' W 095°06'3 6.4
2018-Jun-21 15:30N 29°09' W 095°09'3 6.4
2018-Jun-21 15:00N 29°07' W 095°11'3 6.1
2018-Jun-21 14:30N 29°04' W 095°13'3 6.0
2018-Jun-21 14:00N 29°01' W 095°14'3 6.1
2018-Jun-21 13:30N 28°59' W 095°16'3 6.0
2018-Jun-21 13:00N 28°57' W 095°18'1 2.1
2018-Jun-21 12:30N 28°57' W 095°20'1 1.0
2018-Jun-21 11:55N 28°57' W 095°20'0 0.0
2018-Jun-21 09:35N 28°57' W 095°20'0 0.1
2018-Jun-21 09:26N 28°57' W 095°20'0 0.0
2018-Jun-21 07:12N 28°57' W 095°20'0 0.0
2018-Jun-21 06:48N 28°57' W 095°20'0 0.0
2018-Jun-21 05:27N 28°57' W 095°20'0 0.0
2018-Jun-21 04:59N 28°57' W 095°20'0 0.0
2018-Jun-20 22:42N 28°57' W 095°20'0 0.0
2018-Jun-20 22:12N 28°57' W 095°20'0 0.1
2018-Jun-20 22:00N 28°57' W 095°20'0 0.0
2018-Jun-20 21:12N 28°57' W 095°20'0 0.0
2018-Jun-20 13:32N 28°57' W 095°20'0 0.0
2018-Jun-20 13:30N 28°57' W 095°20'0 0.0
2018-Jun-20 13:00N 28°57' W 095°20'0 0.0
2018-Jun-20 12:28N 28°57' W 095°20'31 3.4
2018-Jun-20 03:14N 29°17' W 094°53'1 5.8
2018-Jun-20 03:00N 29°18' W 094°53'3 6.0
2018-Jun-20 02:31N 29°20' W 094°50'3 5.7
2018-Jun-20 02:01N 29°23' W 094°49'6 7.0
2018-Jun-20 01:05N 29°29' W 094°52'1 6.8
2018-Jun-20 01:00N 29°29' W 094°52'5 6.5
2018-Jun-20 00:17N 29°33' W 094°55'2 6.2
2018-Jun-20 00:00N 29°35' W 094°56'4 6.2
2018-Jun-19 23:26N 29°38' W 094°58'3 6.6
2018-Jun-19 23:00N 29°41' W 094°59'3 0.1
2018-Jun-18 23:59N 29°42' W 095°01'3 5.3
2018-Jun-18 23:27N 29°40' W 094°59'20 6.4
2018-Jun-18 20:19N 29°22' W 094°48'2 6.0
2018-Jun-18 20:01N 29°21' W 094°49'3 6.3
2018-Jun-18 19:30N 29°19' W 094°52'3 5.5
2018-Jun-18 19:01N 29°17' W 094°55'3 6.0
2018-Jun-18 18:30N 29°17' W 094°58'3 6.1
2018-Jun-18 18:00N 29°15' W 095°01'3 6.1
2018-Jun-18 17:30N 29°12' W 095°03'3 6.2
2018-Jun-18 16:59N 29°11' W 095°06'3 6.2
2018-Jun-18 16:31N 29°09' W 095°09'3 6.2
2018-Jun-18 16:00N 29°07' W 095°11'3 6.0
2018-Jun-18 15:30N 29°04' W 095°13'3 6.2
2018-Jun-18 15:00N 29°01' W 095°14'3 6.9
2018-Jun-18 14:30N 28°59' W 095°17'4 5.3
2018-Jun-18 13:47N 28°56' W 095°20'1 0.9
2018-Jun-18 12:52N 28°57' W 095°20'0 0.0
2018-Jun-17 22:38N 28°57' W 095°20'0 0.0
2018-Jun-17 22:30N 28°57' W 095°20'0 0.0
2018-Jun-16 23:25N 28°57' W 095°20'0 0.1
2018-Jun-16 22:57N 28°57' W 095°20'0 0.0
2018-Jun-16 22:30N 28°57' W 095°20'0 0.0
2018-Jun-16 22:00N 28°57' W 095°20'0 0.0
2018-Jun-16 21:30N 28°57' W 095°20'0 0.0
2018-Jun-16 20:59N 28°57' W 095°20'0 0.0
2018-Jun-16 20:30N 28°57' W 095°20'0 0.0
2018-Jun-16 20:00N 28°57' W 095°20'0 0.0
2018-Jun-16 19:30N 28°57' W 095°20'0 0.0
2018-Jun-16 19:00N 28°57' W 095°20'0 0.0
2018-Jun-16 17:47N 28°57' W 095°20'0 0.1
2018-Jun-16 17:26N 28°57' W 095°20'1 0.1
2018-Jun-16 09:02N 28°57' W 095°20'0 0.3
2018-Jun-16 09:00N 28°57' W 095°20'1 2.1
2018-Jun-16 08:29N 28°57' W 095°18'3 5.2
2018-Jun-16 07:57N 28°59' W 095°16'3 5.9
2018-Jun-16 07:30N 29°01' W 095°15'3 5.7
2018-Jun-16 07:00N 29°03' W 095°13'3 5.7
2018-Jun-16 06:30N 29°06' W 095°12'3 5.2
2018-Jun-16 06:00N 29°08' W 095°10'3 5.5
2018-Jun-16 05:30N 29°10' W 095°08'3 5.3
2018-Jun-16 05:00N 29°11' W 095°05'2 5.0
2018-Jun-16 04:30N 29°12' W 095°03'3 5.1
2018-Jun-16 04:00N 29°14' W 095°01'3 5.0
2018-Jun-16 03:30N 29°16' W 094°59'2 4.6
2018-Jun-16 03:00N 29°17' W 094°57'2 4.4
2018-Jun-16 02:30N 29°17' W 094°54'2 4.5
2018-Jun-16 02:00N 29°19' W 094°52'3 5.5
2018-Jun-16 01:30N 29°20' W 094°50'3 5.3
2018-Jun-16 01:00N 29°23' W 094°49'12 6.4
2018-Jun-15 23:10N 29°33' W 094°55'1 6.0
2018-Jun-15 23:00N 29°34' W 094°55'3 6.2
2018-Jun-15 22:28N 29°37' W 094°57'3 6.3
2018-Jun-15 21:59N 29°40' W 094°59'5 0.1
2018-Jun-14 03:59N 29°44' W 095°02'4 5.1
2018-Jun-14 03:17N 29°42' W 094°59'2 5.7
2018-Jun-14 02:59N 29°40' W 094°58'4 6.2
2018-Jun-14 02:19N 29°36' W 094°57'3 6.4
2018-Jun-14 01:55N 29°34' W 094°55'4 6.3
2018-Jun-14 01:14N 29°30' W 094°52'10 5.7
2018-Jun-13 23:33N 29°21' W 094°48'0 6.8
2018-Jun-13 23:30N 29°21' W 094°49'3 6.1
2018-Jun-13 23:00N 29°19' W 094°51'3 6.3
2018-Jun-13 22:29N 29°17' W 094°54'3 6.3
2018-Jun-13 21:59N 29°17' W 094°58'3 6.0
2018-Jun-13 21:30N 29°15' W 095°00'2 5.0
2018-Jun-13 21:00N 29°13' W 095°02'3 5.6
2018-Jun-13 20:30N 29°11' W 095°05'3 6.1
2018-Jun-13 20:00N 29°10' W 095°08'3 5.9
2018-Jun-13 19:30N 29°08' W 095°10'2 4.4
2018-Jun-13 19:00N 29°06' W 095°12'3 6.2
2018-Jun-13 18:30N 29°03' W 095°13'3 6.2
2018-Jun-13 18:00N 29°01' W 095°15'3 5.8
2018-Jun-13 17:30N 28°59' W 095°17'3 3.7
2018-Jun-13 16:33N 28°56' W 095°20'0 4.4
2018-Jun-13 16:27N 28°57' W 095°20'1 0.7
2018-Jun-13 15:35N 28°57' W 095°20'0 0.3
2018-Jun-13 15:23N 28°57' W 095°20'0 0.4
2018-Jun-13 15:00N 28°57' W 095°20'0 0.0
2018-Jun-13 14:28N 28°57' W 095°20'0 0.0
2018-Jun-13 13:59N 28°57' W 095°20'0 0.0
2018-Jun-13 13:30N 28°57' W 095°20'0 0.0
2018-Jun-13 12:59N 28°57' W 095°20'0 0.0
2018-Jun-13 12:28N 28°57' W 095°20'0 0.1
2018-Jun-13 11:29N 28°57' W 095°20'0 0.0
2018-Jun-13 10:09N 28°57' W 095°20'0 0.0
2018-Jun-13 09:08N 28°57' W 095°20'0 0.0
2018-Jun-13 08:48N 28°57' W 095°20'0 0.0
2018-Jun-13 07:08N 28°57' W 095°20'0 0.0
2018-Jun-13 07:00N 28°57' W 095°20'  

Dump ship's entire track history